KLMT

Klamath Regional Airport

Airport
ICAO code
KLMT
IATA Code
LMT
Summary
ICAO Region
NAM
ICAO Territory
Location

Altamont, Oregon

Serving
Klamath Falls
Elevation
4095 ft
Coordinates
42° 9' 54" N , 121° 44' 12" W
KCC
Airport BS
Bird Strike
Airport WX
Mountain Waves
Metar
KLMT 240553Z AUTO 00000KT 10SM CLR 23/13 A3013 RMK AO2 SLP152 T02280128 10361 20222 53021

Klamath Falls Airport is a joint-use public/military (ANG) airport located 5 nm southeast of Klamath Falls, a city in Klamath County, Oregon, USA.

Runways

Designator Length Width Surface Rops
1/19 1573 30 ASP No/No
7/25 1603 30 ASP Yes/Yes
14/32 3140 46 PEM Yes/Yes

Airport map

Aerial View

SKYbrary Partners:

Safety knowledge contributed by: